Time;durP1;ratioP1;P1;durP2;ratioP2;P2;SDS_P1;SDS_P2;PMS_P1;PMS_P2;Temp;Humidity;BMP_temperature;BMP_pressure;BME280_temperature;BME280_humidity;BME280_pressure;Samples;Min_cycle;Max_cycle;Signal;HPM_P1;HPM_P2
2023/06/18 00:00:59;;;;;;;;;18.25;17.25;;;;;28.00;39.33;100464.44;2088040;28;46727;-57
2023/06/18 00:02:00;;;;;;;;;19.50;18.25;;;;;27.99;39.08;100464.59;2093966;28;45383;-56
2023/06/18 00:03:00;;;;;;;;;18.75;18.50;;;;;27.99;38.99;100462.72;2079732;28;47692;-57
2023/06/18 00:04:00;;;;;;;;;19.50;17.75;;;;;27.99;39.62;100464.59;2086483;28;46695;-57
2023/06/18 00:05:01;;;;;;;;;19.50;19.25;;;;;28.00;38.87;100463.59;2087927;28;46307;-57
2023/06/18 00:06:01;;;;;;;;;16.75;16.25;;;;;28.01;39.18;100470.75;2087444;28;46245;-57
2023/06/18 00:07:02;;;;;;;;;17.25;17.25;;;;;27.99;39.32;100462.72;2087915;28;46690;-56
2023/06/18 00:08:02;;;;;;;;;21.00;20.00;;;;;28.00;38.89;100463.59;2087438;28;46410;-56
2023/06/18 00:09:03;;;;;;;;;17.50;17.50;;;;;28.00;39.49;100461.72;2087625;28;46720;-56
2023/06/18 00:10:04;;;;;;;;;18.75;18.00;;;;;27.99;39.18;100467.31;2087887;28;46584;-55
2023/06/18 00:11:04;;;;;;;;;17.60;17.60;;;;;28.00;39.14;100458.13;2088002;28;46942;-56
2023/06/18 00:12:05;;;;;;;;;17.75;17.75;;;;;27.99;39.18;100457.28;2088019;28;46257;-57
2023/06/18 00:13:05;;;;;;;;;16.75;16.75;;;;;27.99;39.01;100457.28;2094810;28;46184;-56
2023/06/18 00:14:06;;;;;;;;;17.00;17.00;;;;;28.00;39.48;100452.66;2099088;28;46521;-56
2023/06/18 00:15:07;;;;;;;;;18.75;16.75;;;;;28.00;39.12;100452.66;2092072;28;46369;-58
2023/06/18 00:16:07;;;;;;;;;18.75;18.75;;;;;28.00;38.92;100449.94;2102788;28;46580;-56
2023/06/18 00:17:08;;;;;;;;;19.50;19.50;;;;;28.00;38.99;100455.41;2103160;28;46269;-55
2023/06/18 00:18:09;;;;;;;;;17.40;17.40;;;;;28.00;39.51;100449.94;2083100;28;46271;-55
2023/06/18 00:19:10;;;;;;;;;19.00;19.00;;;;;27.99;39.21;100454.53;2095338;28;46206;-55
2023/06/18 00:20:10;;;;;;;;;16.75;16.75;;;;;28.00;39.32;100455.41;2105512;27;46755;-57
2023/06/18 00:21:12;;;;;;;;;18.50;18.25;;;;;27.99;39.52;100451.81;2112344;27;46393;-57
2023/06/18 00:22:14;;;;;;;;;21.80;19.80;;;;;27.99;39.23;100453.69;2089004;28;46215;-57
2023/06/18 00:23:15;;;;;;;;;19.00;18.60;;;;;27.98;39.22;100449.25;2096092;28;46692;-57
2023/06/18 00:24:15;;;;;;;;;19.00;19.00;;;;;27.96;39.47;100449.41;2096135;28;46600;-56
2023/06/18 00:25:16;;;;;;;;;17.00;16.00;;;;;27.98;39.69;100454.69;2080351;28;46758;-57
2023/06/18 00:26:16;;;;;;;;;17.00;17.00;;;;;27.95;38.94;100447.69;2074869;28;46651;-57
2023/06/18 00:27:16;;;;;;;;;19.50;17.00;;;;;27.93;39.12;100444.22;2088905;28;46334;-58
2023/06/18 00:28:17;;;;;;;;;16.50;16.50;;;;;27.91;39.57;100450.84;2105010;28;46514;-54
2023/06/18 00:29:17;;;;;;;;;19.50;19.50;;;;;27.89;39.34;100450.13;2105084;28;46694;-56
2023/06/18 00:30:17;;;;;;;;;20.75;20.75;;;;;27.87;39.33;100446.72;2081003;28;46434;-59
2023/06/18 00:31:19;;;;;;;;;17.75;16.75;;;;;27.86;39.41;100454.03;2084832;28;46863;-57
2023/06/18 00:32:19;;;;;;;;;17.60;16.40;;;;;27.85;39.65;100447.72;2088210;28;46473;-57
2023/06/18 00:33:20;;;;;;;;;16.50;16.50;;;;;27.84;39.55;100445.16;2089721;28;46631;-55
2023/06/18 00:34:32;;;;;;;;;20.50;18.00;;;;;27.84;39.48;100445.16;2087077;28;46016;-58
2023/06/18 00:35:32;;;;;;;;;19.60;19.20;;;;;27.83;39.59;100452.47;2088808;28;46569;-58
2023/06/18 00:36:34;;;;;;;;;16.75;15.50;;;;;27.83;39.71;100448.88;2089311;28;46780;-58
2023/06/18 00:37:34;;;;;;;;;18.20;17.00;;;;;27.81;40.07;100446.28;2089054;28;46343;-57
2023/06/18 00:38:35;;;;;;;;;18.75;18.25;;;;;27.79;39.76;100442.00;2089227;28;46319;-58
2023/06/18 00:39:37;;;;;;;;;14.80;14.80;;;;;27.79;39.85;100444.72;2082630;28;47049;-56
2023/06/18 00:40:37;;;;;;;;;17.80;17.80;;;;;27.78;39.38;100443.00;2080711;28;46763;-57
2023/06/18 00:41:38;;;;;;;;;17.25;17.00;;;;;27.78;39.51;100448.47;2084713;28;46483;-57
2023/06/18 00:42:39;;;;;;;;;17.50;16.75;;;;;27.76;39.83;100445.03;2101133;28;46188;-57
2023/06/18 00:43:39;;;;;;;;;18.60;17.00;;;;;27.76;40.04;100443.16;2096502;28;46977;-58
2023/06/18 00:44:40;;;;;;;;;19.75;19.75;;;;;27.76;40.13;100445.03;2089157;28;46269;-59
2023/06/18 00:45:40;;;;;;;;;18.25;17.25;;;;;27.76;39.90;100448.63;2089064;28;46521;-57
2023/06/18 00:46:46;;;;;;;;;16.50;16.50;;;;;27.77;40.44;100446.75;2088864;28;46202;-59
2023/06/18 00:47:48;;;;;;;;;18.80;18.40;;;;;27.76;40.18;100450.50;2093405;28;46518;-57
2023/06/18 00:48:48;;;;;;;;;19.40;19.00;;;;;27.73;40.12;100448.94;2091415;28;46750;-56
2023/06/18 00:49:50;;;;;;;;;16.75;16.75;;;;;27.74;40.29;100455.25;2079993;28;46794;-58
2023/06/18 00:50:51;;;;;;;;;19.00;16.60;;;;;27.72;39.60;100451.81;2086740;28;46417;-55
2023/06/18 00:51:52;;;;;;;;;17.25;16.75;;;;;27.74;39.81;100466.16;2089046;28;46190;-58
2023/06/18 00:52:59;;;;;;;;;18.60;18.60;;;;;27.74;39.75;100463.41;2088933;28;47004;-56
2023/06/18 00:54:00;;;;;;;;;17.00;17.00;;;;;27.75;40.04;100478.78;2089227;28;45948;-57
2023/06/18 00:55:02;;;;;;;;;17.00;17.00;;;;;27.76;39.93;100477.75;2088812;28;47251;-57
2023/06/18 00:56:02;;;;;;;;;19.00;18.00;;;;;27.75;39.59;100482.34;2088879;28;46694;-55
2023/06/18 00:57:03;;;;;;;;;18.75;18.75;;;;;27.77;39.97;100482.19;2088901;28;46292;-56
2023/06/18 00:58:05;;;;;;;;;18.40;18.40;;;;;27.75;40.34;100474.16;2088605;28;46685;-56
2023/06/18 00:59:05;;;;;;;;;18.80;17.60;;;;;27.77;40.00;100472.16;2088796;28;46254;-57
2023/06/18 01:00:13;;;;;;;;;17.25;17.00;;;;;27.78;40.18;100467.56;2088723;28;46712;-56
2023/06/18 01:01:15;;;;;;;;;20.00;20.00;;;;;27.80;40.04;100481.91;2088399;28;46981;-57
2023/06/18 01:02:23;;;;;;;;;17.60;17.60;;;;;27.79;40.50;100491.94;2097528;28;46308;-56
2023/06/18 01:03:25;;;;;;;;;19.80;18.40;;;;;27.79;40.69;100496.53;2082342;28;46992;-59
2023/06/18 01:04:27;;;;;;;;;19.20;18.20;;;;;27.78;40.45;100513.91;2086923;28;46842;-56
2023/06/18 01:05:31;;;;;;;;;18.80;18.80;;;;;27.77;41.25;100531.28;2090518;28;46183;-56
2023/06/18 01:06:34;;;;;;;;;18.60;17.80;;;;;27.75;42.05;100542.34;2087839;28;46346;-57
2023/06/18 01:07:37;;;;;;;;;17.80;17.80;;;;;27.71;42.27;100543.66;2084322;28;45666;-56
2023/06/18 01:08:40;;;;;;;;;20.00;19.00;;;;;27.68;43.28;100551.25;2105223;28;45149;-55
2023/06/18 01:09:41;;;;;;;;;22.00;20.80;;;;;27.63;43.58;100538.03;2103537;28;46734;-56
2023/06/18 01:10:42;;;;;;;;;21.40;20.80;;;;;27.59;43.67;100533.91;2085667;28;46784;-58
2023/06/18 01:11:42;;;;;;;;;18.25;18.25;;;;;27.52;46.37;100522.72;2087934;28;46202;-56
2023/06/18 01:12:48;;;;;;;;;19.25;19.25;;;;;27.48;45.56;100542.25;2089694;28;46592;-55
2023/06/18 01:13:50;;;;;;;;;20.00;20.00;;;;;27.41;46.83;100535.63;2094945;28;46826;-56
2023/06/18 01:14:50;;;;;;;;;19.20;19.20;;;;;27.29;46.40;100534.94;2088805;28;46920;-56
2023/06/18 01:15:51;;;;;;;;;25.00;23.50;;;;;27.22;47.95;100539.25;2088963;28;46993;-57
2023/06/18 01:16:53;;;;;;;;;23.75;23.75;;;;;27.13;47.49;100543.69;2088721;28;46568;-55
2023/06/18 01:17:58;;;;;;;;;19.20;19.20;;;;;27.06;46.91;100536.22;2087673;28;46541;-56
2023/06/18 01:19:01;;;;;;;;;24.40;24.00;;;;;27.01;47.76;100536.69;2087428;28;46723;-55
2023/06/18 01:20:11;;;;;;;;;23.20;21.80;;;;;26.95;48.14;100532.66;2080728;28;46717;-56
2023/06/18 01:21:18;;;;;;;;;21.40;20.80;;;;;26.93;48.17;100525.59;2091952;28;46920;-55
2023/06/18 01:22:29;;;;;;;;;21.40;20.80;;;;;26.91;50.69;100531.19;2088318;28;46672;-56
2023/06/18 01:23:37;;;;;;;;;24.20;23.00;;;;;26.86;50.91;100529.91;2089072;28;46234;-55
2023/06/18 01:24:47;;;;;;;;;24.40;23.20;;;;;26.78;51.61;100530.59;2089392;28;46879;-55
2023/06/18 01:25:48;;;;;;;;;22.00;20.40;;;;;26.69;51.90;100532.34;2090449;28;47123;-56
2023/06/18 01:26:49;;;;;;;;;24.20;23.60;;;;;26.62;51.98;100524.88;2088674;28;46715;-57
2023/06/18 01:27:50;;;;;;;;;22.00;22.00;;;;;26.57;50.92;100524.44;2088673;28;46806;-58
2023/06/18 01:28:51;;;;;;;;;24.25;24.00;;;;;26.53;52.93;100518.41;2086380;28;46637;-56
2023/06/18 01:29:54;;;;;;;;;20.80;20.80;;;;;26.48;51.72;100520.69;2088727;28;46562;-56
2023/06/18 01:30:54;;;;;;;;;21.60;20.80;;;;;26.46;52.01;100516.41;2088741;28;46458;-55
2023/06/18 01:31:56;;;;;;;;;19.50;19.00;;;;;26.44;51.65;100512.97;2086948;28;46592;-58
2023/06/18 01:32:56;;;;;;;;;20.20;20.20;;;;;26.42;52.45;100523.09;2094348;28;46757;-56
2023/06/18 01:33:57;;;;;;;;;23.00;23.00;;;;;26.39;53.09;100510.63;2098121;28;47080;-57
2023/06/18 01:34:57;;;;;;;;;22.75;21.75;;;;;26.36;53.19;100513.63;2080934;28;46094;-55
2023/06/18 01:35:57;;;;;;;;;22.00;22.00;;;;;26.33;52.87;100512.03;2081745;28;46281;-56
2023/06/18 01:37:14;;;;;;;;;20.25;20.00;;;;;26.32;54.37;100512.19;2088199;28;46186;-55
2023/06/18 01:38:44;;;;;;;;;25.20;24.40;;;;;26.28;54.24;100503.41;2079906;28;46621;-56
2023/06/18 01:40:11;;;;;;;;;24.20;22.60;;;;;26.24;54.17;100507.41;2080302;28;46841;-57
2023/06/18 01:41:24;;;;;;;;;24.20;23.60;;;;;26.20;55.46;100491.53;2080299;28;46653;-55
2023/06/18 01:42:29;;;;;;;;;21.20;21.20;;;;;26.17;55.40;100498.13;2086260;28;46369;-56
2023/06/18 01:43:29;;;;;;;;;25.60;23.60;;;;;26.16;55.25;100490.91;2087865;28;46539;-56
2023/06/18 01:44:30;;;;;;;;;22.25;22.25;;;;;26.15;54.49;100475.59;2088728;28;46741;-53
2023/06/18 01:45:39;;;;;;;;;22.00;20.50;;;;;26.15;54.99;100475.59;2088745;28;45833;-57
2023/06/18 01:46:41;;;;;;;;;25.00;25.00;;;;;26.18;56.23;100477.22;2088492;28;45910;-58
2023/06/18 01:47:43;;;;;;;;;24.60;24.60;;;;;26.18;56.04;100477.22;2091902;28;46729;-58
2023/06/18 01:48:53;;;;;;;;;21.00;21.00;;;;;26.19;57.61;100474.34;2088288;28;46496;-55
2023/06/18 01:49:55;;;;;;;;;26.80;25.60;;;;;26.17;56.57;100473.63;2085886;28;47079;-57
2023/06/18 01:50:57;;;;;;;;;28.40;27.60;;;;;26.13;57.27;100468.59;2088542;28;46599;-57
2023/06/18 01:52:02;;;;;;;;;24.80;24.80;;;;;26.09;57.44;100465.28;2088468;28;45714;-57
2023/06/18 01:53:06;;;;;;;;;25.80;25.20;;;;;26.05;57.36;100463.88;2088468;28;46927;-56
2023/06/18 01:54:07;;;;;;;;;25.20;24.60;;;;;26.03;57.06;100460.41;2088973;28;46522;-57
2023/06/18 01:55:10;;;;;;;;;21.40;21.00;;;;;26.03;56.90;100444.94;2088478;28;46258;-55
2023/06/18 01:56:13;;;;;;;;;21.20;20.80;;;;;26.06;56.67;100443.81;2088682;28;46517;-56
2023/06/18 01:57:14;;;;;;;;;23.00;23.00;;;;;26.04;58.24;100441.25;2088650;28;46375;-57
2023/06/18 01:58:15;;;;;;;;;22.20;22.00;;;;;26.04;57.76;100443.97;2088245;28;46417;-56
2023/06/18 01:59:16;;;;;;;;;26.80;26.00;;;;;26.05;57.48;100456.56;2088801;28;46447;-55
2023/06/18 02:00:16;;;;;;;;;26.50;24.75;;;;;26.05;56.77;100459.28;2088269;28;47066;-55
2023/06/18 02:01:17;;;;;;;;;23.75;22.75;;;;;26.06;56.83;100465.59;2083291;28;46521;-54
2023/06/18 02:02:17;;;;;;;;;24.00;23.00;;;;;26.08;56.79;100464.44;2096990;28;46547;-55
2023/06/18 02:03:19;;;;;;;;;23.25;23.25;;;;;26.11;57.01;100463.28;2081210;28;46104;-57
2023/06/18 02:04:19;;;;;;;;;24.40;23.80;;;;;26.13;57.83;100465.88;2095048;28;46288;-57
2023/06/18 02:05:20;;;;;;;;;21.50;20.50;;;;;26.13;57.44;100460.44;2092801;28;46957;-57
2023/06/18 02:06:20;;;;;;;;;25.75;23.00;;;;;26.13;56.92;100474.03;2088065;28;46012;-54
2023/06/18 02:07:20;;;;;;;;;26.00;25.50;;;;;26.12;56.33;100465.00;2088459;28;46713;-57
2023/06/18 02:08:21;;;;;;;;;25.00;25.00;;;;;26.14;57.66;100478.47;2079135;28;46474;-56
2023/06/18 02:09:21;;;;;;;;;26.75;24.50;;;;;26.11;58.39;100475.03;2079639;28;46419;-57
2023/06/18 02:10:22;;;;;;;;;23.75;23.75;;;;;26.10;58.68;100472.47;2088251;28;46189;-54
2023/06/18 02:11:22;;;;;;;;;26.80;25.40;;;;;26.06;59.37;100473.75;2088250;28;46858;-57
2023/06/18 02:12:23;;;;;;;;;28.75;25.75;;;;;26.04;59.60;100481.16;2088792;28;46478;-56
2023/06/18 02:13:23;;;;;;;;;25.00;25.00;;;;;26.00;59.17;100480.56;2094930;28;46814;-55
2023/06/18 02:14:23;;;;;;;;;23.25;22.75;;;;;25.98;59.37;100479.00;2089195;28;46170;-55
2023/06/18 02:15:24;;;;;;;;;28.50;26.50;;;;;25.95;59.09;100485.56;2087976;28;45598;-56
2023/06/18 02:16:24;;;;;;;;;27.75;24.50;;;;;25.92;59.73;100482.25;2087866;28;46710;-56
2023/06/18 02:17:26;;;;;;;;;27.50;25.50;;;;;25.89;59.55;100486.09;2087791;28;46144;-56
2023/06/18 02:18:26;;;;;;;;;26.00;25.40;;;;;25.87;58.91;100493.56;2080007;28;46666;-55
2023/06/18 02:19:26;;;;;;;;;25.50;24.25;;;;;25.87;59.63;100487.25;2080116;28;46386;-57
2023/06/18 02:20:27;;;;;;;;;27.00;26.00;;;;;25.87;59.93;100492.69;2083751;28;46851;-56
2023/06/18 02:21:28;;;;;;;;;28.25;27.75;;;;;25.86;60.17;100493.69;2088668;28;46827;-58
2023/06/18 02:22:29;;;;;;;;;27.00;27.00;;;;;25.82;60.38;100498.53;2088535;28;46449;-56
2023/06/18 02:23:29;;;;;;;;;27.25;27.00;;;;;25.79;59.73;100496.06;2088185;28;46891;-57
2023/06/18 02:24:31;;;;;;;;;28.00;27.25;;;;;25.76;60.38;100505.38;2088351;28;46763;-57
2023/06/18 02:25:32;;;;;;;;;24.20;24.20;;;;;25.75;60.52;100495.50;2087898;28;47014;-57
2023/06/18 02:26:32;;;;;;;;;25.40;25.40;;;;;25.75;60.04;100503.66;2087875;28;46733;-55
2023/06/18 02:27:33;;;;;;;;;26.50;26.50;;;;;25.75;61.36;100495.50;2080033;28;46736;-58
2023/06/18 02:28:33;;;;;;;;;21.00;20.50;;;;;25.73;60.74;100489.34;2083387;28;46739;-54
2023/06/18 02:29:33;;;;;;;;;27.00;24.25;;;;;25.75;59.62;100494.63;2088290;28;46452;-55
2023/06/18 02:30:34;;;;;;;;;24.00;23.00;;;;;25.75;59.50;100484.63;2104650;28;45315;-56
2023/06/18 02:31:34;;;;;;;;;27.25;26.25;;;;;25.78;60.75;100487.06;2104008;28;46797;-57
2023/06/18 02:32:38;;;;;;;;;26.75;26.00;;;;;25.76;60.76;100483.63;2088410;28;46631;-55
2023/06/18 02:33:38;;;;;;;;;22.00;21.20;;;;;25.74;61.16;100477.47;2087879;28;46409;-55
2023/06/18 02:34:39;;;;;;;;;21.25;20.75;;;;;25.73;60.86;100477.63;2088392;28;46833;-56
2023/06/18 02:35:39;;;;;;;;;18.75;18.75;;;;;25.71;60.16;100482.31;2088090;28;46524;-55
2023/06/18 02:36:40;;;;;;;;;26.50;24.50;;;;;25.70;61.31;100476.03;2085686;28;46376;-56
2023/06/18 02:37:42;;;;;;;;;22.25;22.00;;;;;25.70;60.30;100467.88;2088181;28;46203;-57
2023/06/18 02:38:42;;;;;;;;;25.60;24.40;;;;;25.73;60.29;100478.47;2088328;28;46098;-57
2023/06/18 02:39:43;;;;;;;;;25.25;24.00;;;;;25.76;60.02;100472.75;2088181;28;46710;-57
2023/06/18 02:40:43;;;;;;;;;30.00;27.50;;;;;25.79;59.84;100471.63;2088283;28;46265;-59
2023/06/18 02:41:44;;;;;;;;;24.25;24.25;;;;;25.82;60.40;100468.66;2087844;28;46225;-57
2023/06/18 02:42:47;;;;;;;;;24.75;24.50;;;;;25.85;60.38;100476.53;2088255;28;46168;-56
2023/06/18 02:43:49;;;;;;;;;26.20;25.80;;;;;25.85;60.92;100465.66;2086973;28;46361;-58
2023/06/18 02:44:49;;;;;;;;;24.60;22.80;;;;;25.85;61.37;100464.78;2087977;28;46699;-57
2023/06/18 02:45:51;;;;;;;;;22.00;21.25;;;;;25.81;60.71;100465.06;2088389;28;46353;-57
2023/06/18 02:46:51;;;;;;;;;24.80;24.80;;;;;25.82;60.11;100460.50;2088324;28;46887;-57
2023/06/18 02:47:52;;;;;;;;;24.00;22.75;;;;;25.84;60.79;100458.50;2089147;28;46738;-54
2023/06/18 02:48:52;;;;;;;;;25.00;24.25;;;;;25.84;61.94;100468.50;2092645;28;45162;-55
2023/06/18 02:49:52;;;;;;;;;27.75;26.75;;;;;25.80;62.29;100460.63;2092831;28;44948;-56
2023/06/18 02:50:53;;;;;;;;;22.75;22.50;;;;;25.77;62.41;100468.19;2091893;28;46590;-56
2023/06/18 02:51:53;;;;;;;;;24.75;23.00;;;;;25.74;61.88;100468.47;2095281;28;46634;-56
2023/06/18 02:52:55;;;;;;;;;25.00;24.00;;;;;25.72;60.89;100473.19;2091848;28;46041;-57
2023/06/18 02:53:57;;;;;;;;;28.20;26.00;;;;;25.72;60.79;100468.59;2093485;28;46614;-57
2023/06/18 02:54:57;;;;;;;;;21.80;21.20;;;;;25.75;61.60;100478.34;2094542;28;46817;-56
2023/06/18 02:55:57;;;;;;;;;23.50;23.50;;;;;25.76;61.42;100477.34;2092766;28;46242;-56
2023/06/18 02:56:58;;;;;;;;;25.25;24.25;;;;;25.74;61.01;100474.75;2096170;28;46587;-58
2023/06/18 02:57:58;;;;;;;;;23.50;22.50;;;;;25.76;61.87;100475.47;2093565;28;46444;-55
2023/06/18 02:58:59;;;;;;;;;24.75;20.75;;;;;25.76;62.05;100471.91;2092303;28;45895;-57
2023/06/18 02:59:59;;;;;;;;;24.50;24.25;;;;;25.77;62.93;100465.47;2087845;28;45488;-55
2023/06/18 03:01:00;;;;;;;;;24.75;23.00;;;;;25.77;62.11;100479.03;2080726;28;46477;-55
2023/06/18 03:02:04;;;;;;;;;31.25;28.75;;;;;25.75;62.49;100465.59;2091458;28;45936;-57
2023/06/18 03:03:06;;;;;;;;;21.80;21.80;;;;;25.74;62.46;100477.47;2088131;28;46324;-57
2023/06/18 03:04:06;;;;;;;;;26.60;25.00;;;;;25.74;62.86;100474.75;2092195;28;46374;-56
2023/06/18 03:05:07;;;;;;;;;27.00;26.50;;;;;25.73;62.10;100472.19;2088421;28;46323;-57
2023/06/18 03:06:07;;;;;;;;;24.25;23.50;;;;;25.74;61.98;100472.03;2096356;28;46424;-56
2023/06/18 03:07:07;;;;;;;;;26.25;26.25;;;;;25.74;63.01;100477.47;2092859;28;45151;-55
2023/06/18 03:08:08;;;;;;;;;29.50;24.50;;;;;25.74;63.20;100482.03;2088175;28;47050;-56
2023/06/18 03:09:08;;;;;;;;;26.75;25.50;;;;;25.72;62.50;100479.47;2087435;28;46872;-55
2023/06/18 03:10:09;;;;;;;;;26.25;25.50;;;;;25.72;62.84;100479.47;2087348;28;46843;-55
2023/06/18 03:11:09;;;;;;;;;23.00;22.50;;;;;25.72;64.28;100484.91;2088237;28;46735;-55
2023/06/18 03:12:11;;;;;;;;;28.75;26.75;;;;;25.70;63.33;100480.59;2091559;28;46584;-57
2023/06/18 03:13:12;;;;;;;;;26.40;26.40;;;;;25.69;62.77;100484.31;2096214;28;46487;-55
2023/06/18 03:14:12;;;;;;;;;26.00;26.00;;;;;25.70;62.35;100486.91;2095128;28;45703;-56
2023/06/18 03:15:12;;;;;;;;;22.75;22.75;;;;;25.71;62.58;100491.34;2089800;28;46328;-57
2023/06/18 03:16:13;;;;;;;;;24.50;22.50;;;;;25.74;61.66;100479.34;2096203;28;46463;-56
2023/06/18 03:17:13;;;;;;;;;23.00;23.00;;;;;25.76;62.82;100483.63;2094337;28;46161;-56
2023/06/18 03:18:14;;;;;;;;;21.00;21.00;;;;;25.77;61.75;100482.63;2094790;28;46244;-56
2023/06/18 03:19:14;;;;;;;;;22.75;21.25;;;;;25.79;61.99;100482.50;2096589;28;46950;-56
2023/06/18 03:20:15;;;;;;;;;28.75;25.50;;;;;25.80;61.76;100484.25;2093696;28;46971;-55
2023/06/18 03:21:15;;;;;;;;;24.25;21.50;;;;;25.82;61.76;100487.69;2087928;28;46628;-57
2023/06/18 03:22:16;;;;;;;;;25.25;24.00;;;;;25.82;62.66;100482.25;2094477;28;46606;-54
2023/06/18 03:23:16;;;;;;;;;23.75;23.00;;;;;25.80;62.89;100479.66;2095319;28;46408;-57
2023/06/18 03:24:17;;;;;;;;;25.00;25.00;;;;;25.80;62.60;100481.53;2096514;28;46832;-57
2023/06/18 03:25:19;;;;;;;;;17.00;17.00;;;;;25.79;62.35;100477.94;2095468;28;46394;-56
2023/06/18 03:26:19;;;;;;;;;25.00;23.40;;;;;25.76;62.54;100486.34;2096113;28;46599;-56
2023/06/18 03:27:20;;;;;;;;;27.50;27.50;;;;;25.75;63.09;100489.19;2095653;28;46414;-57
2023/06/18 03:28:22;;;;;;;;;24.25;24.25;;;;;25.72;62.25;100486.75;2091673;28;45914;-56
2023/06/18 03:29:22;;;;;;;;;23.40;20.80;;;;;25.69;63.10;100489.75;2087789;28;46894;-56
2023/06/18 03:30:22;;;;;;;;;21.00;21.00;;;;;25.67;61.53;100486.28;2088833;28;46444;-56
2023/06/18 03:31:24;;;;;;;;;20.00;20.00;;;;;25.65;62.58;100493.69;2086846;28;45883;-57
2023/06/18 03:32:24;;;;;;;;;23.40;21.80;;;;;25.64;62.48;100489.25;2087569;28;46627;-56
2023/06/18 03:33:29;;;;;;;;;23.00;21.50;;;;;25.61;62.70;100484.97;2093720;28;46773;-57
2023/06/18 03:34:31;;;;;;;;;20.60;20.60;;;;;25.60;62.50;100491.38;2093129;28;46396;-57
2023/06/18 03:35:32;;;;;;;;;20.20;20.20;;;;;25.59;63.19;100486.97;2096258;28;46945;-57
2023/06/18 03:36:39;;;;;;;;;22.60;22.20;;;;;25.58;62.60;100497.97;2088544;28;45020;-57
2023/06/18 03:37:40;;;;;;;;;24.60;24.20;;;;;25.56;62.71;100495.38;2085964;28;46985;-57
2023/06/18 03:38:40;;;;;;;;;22.00;20.75;;;;;25.53;62.35;100490.19;2096374;28;46597;-56
2023/06/18 03:39:41;;;;;;;;;24.50;22.75;;;;;25.54;63.45;100494.66;2089367;28;45421;-57
2023/06/18 03:40:41;;;;;;;;;23.00;23.00;;;;;25.51;62.68;100498.47;2086979;28;46538;-57
2023/06/18 03:41:42;;;;;;;;;24.50;21.75;;;;;25.50;61.94;100496.75;2092620;28;46727;-57
2023/06/18 03:42:42;;;;;;;;;23.60;23.40;;;;;25.50;62.59;100490.47;2089496;28;46449;-55
2023/06/18 03:43:43;;;;;;;;;21.75;20.75;;;;;25.50;62.70;100502.19;2088602;28;46494;-57
2023/06/18 03:44:43;;;;;;;;;24.75;23.50;;;;;25.50;62.39;100509.50;2093721;28;45903;-56
2023/06/18 03:45:43;;;;;;;;;20.75;20.75;;;;;25.50;61.07;100507.63;2094551;28;46312;-58
2023/06/18 03:46:44;;;;;;;;;19.50;18.50;;;;;25.51;60.83;100506.63;2090797;28;46688;-57
2023/06/18 03:47:44;;;;;;;;;20.00;20.00;;;;;25.53;61.05;100509.22;2092472;28;45983;-57
2023/06/18 03:48:44;;;;;;;;;25.00;22.50;;;;;25.56;60.90;100511.69;2089410;28;46835;-56
2023/06/18 03:49:45;;;;;;;;;24.00;23.00;;;;;25.56;60.07;100508.97;2088067;28;46325;-55
2023/06/18 03:50:45;;;;;;;;;22.00;21.25;;;;;25.57;60.09;100512.56;2078555;28;46833;-55
2023/06/18 03:51:46;;;;;;;;;23.25;22.50;;;;;25.55;60.07;100498.25;2079025;28;46469;-57
2023/06/18 03:52:46;;;;;;;;;22.50;21.50;;;;;25.55;60.11;100498.25;2087806;28;46923;-56
2023/06/18 03:53:46;;;;;;;;;18.50;18.50;;;;;25.55;60.21;100493.66;2087322;28;46681;-56
2023/06/18 03:54:47;;;;;;;;;22.00;22.00;;;;;25.53;60.21;100496.50;2087262;28;46773;-56
2023/06/18 03:55:48;;;;;;;;;23.25;23.25;;;;;25.55;60.00;100484.66;2089268;28;46536;-56
2023/06/18 03:56:48;;;;;;;;;21.00;20.50;;;;;25.56;61.04;100489.94;2089896;28;46434;-54
2023/06/18 03:57:48;;;;;;;;;24.75;24.25;;;;;25.55;61.21;100487.38;2097450;28;46353;-56
2023/06/18 03:58:49;;;;;;;;;20.75;20.25;;;;;25.51;61.61;100490.34;2097127;28;46093;-55
2023/06/18 03:59:51;;;;;;;;;23.75;22.00;;;;;25.50;62.08;100496.75;2098037;28;46268;-56
2023/06/18 04:00:51;;;;;;;;;23.60;23.20;;;;;25.48;61.61;100492.47;2096209;28;46493;-57
2023/06/18 04:01:52;;;;;;;;;27.50;24.75;;;;;25.46;61.17;100495.31;2091588;28;46515;-57
2023/06/18 04:02:52;;;;;;;;;21.00;21.00;;;;;25.45;61.68;100498.19;2087679;28;46776;-57
2023/06/18 04:03:52;;;;;;;;;22.00;22.00;;;;;25.44;61.56;100493.75;2094086;28;46864;-57
2023/06/18 04:04:53;;;;;;;;;22.25;19.50;;;;;25.41;61.76;100497.59;2096345;28;46695;-56
2023/06/18 04:05:53;;;;;;;;;25.50;22.75;;;;;25.40;62.07;100493.13;2091058;28;46625;-56
2023/06/18 04:06:54;;;;;;;;;25.50;24.50;;;;;25.38;62.10;100495.13;2092443;28;46603;-57
2023/06/18 04:07:55;;;;;;;;;22.00;21.25;;;;;25.35;62.39;100484.53;2097619;28;46483;-56
2023/06/18 04:08:55;;;;;;;;;23.60;22.60;;;;;25.34;62.79;100490.97;2096665;28;46848;-56
2023/06/18 04:09:55;;;;;;;;;24.00;21.75;;;;;25.33;61.99;100494.69;2096831;28;46225;-56
2023/06/18 04:10:56;;;;;;;;;25.50;24.00;;;;;25.32;62.99;100487.53;2096736;28;46601;-54
2023/06/18 04:11:56;;;;;;;;;25.00;23.00;;;;;25.29;63.20;100486.94;2091910;28;46509;-57
2023/06/18 04:12:57;;;;;;;;;23.00;23.00;;;;;25.26;62.72;100488.03;2089802;28;46368;-57
2023/06/18 04:13:57;;;;;;;;;24.00;23.00;;;;;25.25;62.47;100489.03;2096723;28;46284;-56
2023/06/18 04:14:57;;;;;;;;;23.50;23.00;;;;;25.23;62.86;100489.16;2094301;28;46203;-57
2023/06/18 04:15:58;;;;;;;;;22.75;22.50;;;;;25.22;62.11;100490.16;2092458;28;46376;-57
2023/06/18 04:17:00;;;;;;;;;28.00;25.00;;;;;25.21;62.89;100484.88;2095211;28;46188;-56
2023/06/18 04:18:00;;;;;;;;;25.60;25.00;;;;;25.21;62.97;100483.00;2091249;28;46305;-55
2023/06/18 04:19:01;;;;;;;;;20.75;20.75;;;;;25.21;63.30;100479.44;2091299;28;46321;-57
2023/06/18 04:20:02;;;;;;;;;24.00;22.75;;;;;25.19;63.38;100474.16;2089259;28;46877;-56
2023/06/18 04:21:02;;;;;;;;;24.60;23.80;;;;;25.20;63.46;100481.28;2094194;28;46486;-56
2023/06/18 04:22:03;;;;;;;;;22.00;21.75;;;;;25.22;62.94;100483.88;2089055;28;45033;-57
2023/06/18 04:23:03;;;;;;;;;21.00;21.00;;;;;25.25;62.04;100480.88;2089207;28;46505;-56
2023/06/18 04:24:04;;;;;;;;;26.00;25.00;;;;;25.28;62.50;100480.59;2092103;28;46393;-57
2023/06/18 04:25:05;;;;;;;;;23.80;23.20;;;;;25.30;62.12;100475.06;2089389;28;46774;-57
2023/06/18 04:26:06;;;;;;;;;24.60;24.00;;;;;25.32;61.89;100482.09;2092034;28;46968;-56
2023/06/18 04:27:06;;;;;;;;;24.75;23.75;;;;;25.33;62.22;100480.22;2092209;28;46460;-56
2023/06/18 04:28:06;;;;;;;;;29.75;26.75;;;;;25.35;62.06;100475.53;2088559;28;46044;-58
2023/06/18 04:29:07;;;;;;;;;22.00;22.00;;;;;25.37;62.02;100485.25;2092053;28;46845;-57
2023/06/18 04:30:08;;;;;;;;;23.75;22.75;;;;;25.39;61.69;100485.13;2090097;28;46564;-55
2023/06/18 04:31:09;;;;;;;;;26.40;22.40;;;;;25.39;62.93;100485.97;2087001;28;46509;-56
2023/06/18 04:32:09;;;;;;;;;17.25;16.25;;;;;25.37;61.69;100482.53;2090103;28;46525;-57
2023/06/18 04:33:09;;;;;;;;;23.00;22.75;;;;;25.36;62.29;100482.66;2088848;28;46353;-57
2023/06/18 04:34:10;;;;;;;;;25.25;23.75;;;;;25.38;61.87;100486.09;2090896;28;46230;-57
2023/06/18 04:35:10;;;;;;;;;23.75;22.75;;;;;25.37;62.30;100481.69;2091205;28;46068;-57
2023/06/18 04:36:10;;;;;;;;;26.75;23.50;;;;;25.37;62.67;100487.97;2088852;28;46128;-56
2023/06/18 04:37:11;;;;;;;;;22.50;22.50;;;;;25.34;62.59;100482.81;2089723;28;46809;-55
2023/06/18 04:38:11;;;;;;;;;23.25;20.00;;;;;25.34;62.40;100490.09;2089177;28;46243;-55
2023/06/18 04:39:11;;;;;;;;;20.50;20.50;;;;;25.31;62.17;100483.09;2095946;28;46284;-55
2023/06/18 04:40:12;;;;;;;;;24.00;21.75;;;;;25.32;62.05;100487.53;2090657;28;46469;-56